Time;durP1;ratioP1;P1;durP2;ratioP2;P2;SDS_P1;SDS_P2;PMS_P1;PMS_P2;Temp;Humidity;BMP_temperature;BMP_pressure;BME280_temperature;BME280_humidity;BME280_pressure;Samples;Min_cycle;Max_cycle;Signal;HPM_P1;HPM_P2
2021/03/11 00:02:22;;;;;;;33.00;20.13;;;6.00;99.90;;;;;;5021349;28;20410;-78
2021/03/11 00:04:48;;;;;;;47.50;29.10;;;6.00;99.90;;;;;;5037207;28;20458;-77
2021/03/11 00:07:15;;;;;;;47.72;31.17;;;6.00;99.90;;;;;;5025690;28;20436;-77
2021/03/11 00:09:41;;;;;;;41.35;24.38;;;6.00;99.90;;;;;;5016875;28;20080;-80
2021/03/11 00:12:08;;;;;;;27.52;19.00;;;6.00;99.90;;;;;;5022163;28;20045;-79
2021/03/11 00:14:36;;;;;;;37.40;25.52;;;6.00;99.90;;;;;;5023374;28;20041;-78
2021/03/11 00:17:04;;;;;;;33.33;18.52;;;6.00;99.90;;;;;;5020867;28;20541;-79
2021/03/11 00:19:30;;;;;;;35.28;21.85;;;6.00;99.90;;;;;;5023364;28;20050;-79
2021/03/11 00:21:56;;;;;;;29.42;18.40;;;6.10;99.90;;;;;;5011601;28;20095;-79
2021/03/11 00:24:23;;;;;;;36.03;24.15;;;6.10;99.90;;;;;;5034101;28;20047;-79
2021/03/11 00:26:49;;;;;;;29.60;20.55;;;6.10;99.90;;;;;;5025579;28;20041;-79
2021/03/11 00:29:17;;;;;;;38.08;22.42;;;6.10;99.90;;;;;;5012786;28;20052;-79
2021/03/11 00:31:43;;;;;;;37.35;25.33;;;6.10;99.90;;;;;;5018581;28;20030;-79
2021/03/11 00:34:10;;;;;;;37.15;23.85;;;6.10;99.80;;;;;;5020514;28;20133;-79
2021/03/11 00:36:39;;;;;;;28.98;18.77;;;6.10;99.90;;;;;;5018211;28;20076;-79
2021/03/11 00:39:05;;;;;;;37.20;23.65;;;6.20;99.80;;;;;;5019867;28;20397;-79
2021/03/11 00:41:31;;;;;;;27.80;16.08;;;6.10;99.80;;;;;;5026159;28;20065;-79
2021/03/11 00:43:57;;;;;;;31.33;19.92;;;6.10;99.90;;;;;;5032516;28;20037;-80
2021/03/11 00:46:23;;;;;;;35.35;21.17;;;6.10;99.90;;;;;;5019030;28;20037;-79
2021/03/11 00:48:49;;;;;;;40.75;25.45;;;6.10;99.90;;;;;;5021254;28;20084;-79
2021/03/11 00:51:14;;;;;;;37.40;23.77;;;6.10;99.90;;;;;;5019050;28;20069;-78
2021/03/11 00:53:40;;;;;;;40.13;24.80;;;6.10;99.90;;;;;;5021413;28;20110;-78
2021/03/11 00:56:06;;;;;;;42.75;24.40;;;6.10;99.90;;;;;;5014322;28;20046;-77
2021/03/11 00:58:32;;;;;;;32.67;20.58;;;6.20;99.90;;;;;;5030922;28;20415;-77
2021/03/11 01:00:59;;;;;;;40.92;25.08;;;6.10;99.90;;;;;;5015468;28;20401;-77
2021/03/11 01:03:25;;;;;;;41.42;25.08;;;6.10;99.90;;;;;;5014036;28;20557;-76
2021/03/11 01:05:51;;;;;;;35.72;24.42;;;6.20;99.90;;;;;;5015717;28;20041;-78
2021/03/11 01:08:18;;;;;;;39.58;23.48;;;6.20;99.90;;;;;;5013368;28;20112;-78
2021/03/11 01:10:44;;;;;;;37.15;23.63;;;6.20;99.90;;;;;;5028467;28;20973;-78
2021/03/11 01:13:10;;;;;;;38.20;23.27;;;6.20;99.90;;;;;;5015135;28;20033;-78
2021/03/11 01:15:40;;;;;;;35.10;23.90;;;6.20;99.90;;;;;;5013583;28;20044;-78
2021/03/11 01:18:07;;;;;;;37.63;25.30;;;6.20;99.90;;;;;;5020076;28;20033;-77
2021/03/11 01:20:33;;;;;;;33.53;21.23;;;6.20;99.90;;;;;;5013507;28;20794;-77
2021/03/11 01:22:59;;;;;;;38.30;24.95;;;6.20;99.90;;;;;;5012281;28;20408;-77
2021/03/11 01:25:25;;;;;;;35.55;23.63;;;6.20;99.90;;;;;;5022655;28;20104;-77
2021/03/11 01:27:51;;;;;;;32.90;21.73;;;6.30;99.90;;;;;;5030166;28;20053;-77
2021/03/11 01:30:18;;;;;;;34.45;22.38;;;6.20;99.90;;;;;;5026846;28;22027;-78
2021/03/11 01:32:43;;;;;;;31.40;20.70;;;6.30;99.90;;;;;;5026115;28;20466;-78
2021/03/11 01:35:10;;;;;;;36.05;22.55;;;6.30;99.90;;;;;;5021297;28;20092;-78
2021/03/11 01:37:36;;;;;;;30.55;20.35;;;6.30;99.90;;;;;;5017856;28;20038;-77
2021/03/11 01:40:04;;;;;;;35.90;21.73;;;6.30;99.90;;;;;;5018711;28;20160;-77
2021/03/11 01:42:30;;;;;;;33.20;22.20;;;6.30;99.90;;;;;;5030173;28;20045;-77
2021/03/11 01:44:56;;;;;;;44.00;26.50;;;6.40;99.90;;;;;;5018627;28;20409;-77
2021/03/11 01:47:21;;;;;;;34.83;22.63;;;6.30;99.90;;;;;;5018267;28;20046;-77
2021/03/11 01:49:47;;;;;;;36.35;24.20;;;6.30;99.90;;;;;;5026750;28;20453;-77
2021/03/11 01:52:13;;;;;;;39.65;24.30;;;6.30;99.90;;;;;;5046762;28;20052;-78
2021/03/11 01:54:39;;;;;;;40.40;25.70;;;6.40;99.90;;;;;;5017705;28;20045;-77
2021/03/11 01:57:05;;;;;;;37.50;23.50;;;6.40;99.90;;;;;;5030116;28;20416;-77
2021/03/11 01:59:31;;;;;;;36.33;22.85;;;6.40;99.90;;;;;;5036031;28;20103;-77
2021/03/11 02:01:58;;;;;;;37.45;24.58;;;6.40;99.90;;;;;;5022269;28;20499;-77
2021/03/11 02:04:23;;;;;;;39.45;22.95;;;6.40;99.90;;;;;;5020317;28;20046;-77
2021/03/11 02:06:51;;;;;;;44.20;24.40;;;6.40;99.90;;;;;;5045324;28;20057;-78
2021/03/11 02:09:18;;;;;;;38.17;23.85;;;6.30;99.90;;;;;;5033953;28;20458;-78
2021/03/11 02:11:59;;;;;;;38.90;24.92;;;6.50;99.90;;;;;;5029077;28;20029;-78
2021/03/11 02:14:41;;;;;;;24.52;14.82;;;6.40;99.90;;;;;;5024338;28;20057;-78
2021/03/11 02:17:09;;;;;;;38.05;23.70;;;6.40;99.90;;;;;;5017413;28;20034;-78
2021/03/11 02:19:57;;;;;;;34.53;20.75;;;6.40;99.90;;;;;;5026433;28;20406;-78
2021/03/11 02:22:54;;;;;;;38.15;22.17;;;6.40;99.90;;;;;;5018665;28;20569;-78
2021/03/11 02:25:28;;;;;;;36.85;22.33;;;6.40;99.90;;;;;;4977318;28;20417;-78
2021/03/11 02:28:18;;;;;;;37.13;22.55;;;6.40;99.90;;;;;;5020307;28;20117;-78
2021/03/11 02:30:45;;;;;;;28.42;17.73;;;6.40;99.90;;;;;;5022320;28;20042;-78
2021/03/11 02:33:13;;;;;;;32.63;19.80;;;6.30;99.90;;;;;;5032788;28;20044;-78
2021/03/11 02:35:41;;;;;;;34.28;20.58;;;6.40;99.90;;;;;;5026202;28;20394;-77
2021/03/11 02:38:10;;;;;;;29.73;16.17;;;6.40;99.90;;;;;;5015444;28;20045;-77
2021/03/11 02:40:37;;;;;;;37.90;23.42;;;6.50;99.90;;;;;;5025286;28;20048;-77
2021/03/11 02:43:08;;;;;;;35.53;20.27;;;6.40;99.90;;;;;;5014125;28;20057;-77
2021/03/11 02:45:34;;;;;;;43.88;24.85;;;6.40;99.90;;;;;;5025073;28;20059;-77
2021/03/11 02:48:05;;;;;;;43.75;23.50;;;6.50;99.90;;;;;;5013579;28;20056;-78
2021/03/11 02:50:32;;;;;;;34.55;20.75;;;6.50;99.90;;;;;;5039243;28;20048;-78
2021/03/11 02:53:00;;;;;;;35.17;21.30;;;6.40;99.90;;;;;;5015219;28;20121;-77
2021/03/11 02:55:30;;;;;;;44.58;23.30;;;6.50;99.90;;;;;;5022157;28;20490;-77
2021/03/11 02:57:57;;;;;;;34.55;21.52;;;6.50;99.90;;;;;;5021700;28;20048;-77
2021/03/11 03:00:24;;;;;;;33.75;21.65;;;6.50;99.90;;;;;;5032330;28;20041;-77
2021/03/11 03:02:53;;;;;;;35.75;21.73;;;6.50;99.90;;;;;;5013552;28;20054;-77
2021/03/11 03:05:28;;;;;;;42.50;23.65;;;6.50;99.90;;;;;;5039152;28;20048;-77
2021/03/11 03:07:55;;;;;;;37.78;22.65;;;6.50;99.90;;;;;;5020248;28;20034;-77
2021/03/11 03:10:27;;;;;;;41.15;22.95;;;6.50;99.90;;;;;;5022638;28;20041;-77
2021/03/11 03:12:57;;;;;;;32.38;20.08;;;6.50;99.90;;;;;;5022931;28;20033;-77
2021/03/11 03:15:23;;;;;;;34.17;20.98;;;6.50;99.90;;;;;;5016228;28;20044;-78
2021/03/11 03:17:51;;;;;;;40.83;22.08;;;6.50;99.90;;;;;;5019943;28;20060;-78
2021/03/11 03:20:19;;;;;;;31.00;19.40;;;6.60;99.90;;;;;;5020078;28;20034;-78
2021/03/11 03:22:46;;;;;;;33.45;19.33;;;6.60;99.90;;;;;;5014056;28;20049;-78
2021/03/11 03:25:14;;;;;;;35.83;20.15;;;6.50;99.90;;;;;;5040072;28;20057;-78
2021/03/11 03:27:40;;;;;;;33.08;19.38;;;6.60;99.90;;;;;;5019909;28;20402;-78
2021/03/11 03:30:08;;;;;;;34.22;19.77;;;6.70;99.90;;;;;;5028185;28;20124;-77
2021/03/11 03:32:35;;;;;;;30.08;18.83;;;6.60;99.90;;;;;;5021569;28;20041;-78
2021/03/11 03:35:01;;;;;;;28.88;17.77;;;6.60;99.90;;;;;;5026581;28;20041;-78
2021/03/11 03:37:27;;;;;;;30.33;18.67;;;6.60;99.90;;;;;;5027126;28;20073;-77
2021/03/11 03:39:52;;;;;;;28.98;18.48;;;6.70;99.90;;;;;;5022570;28;20033;-77
2021/03/11 03:42:19;;;;;;;33.20;18.92;;;6.70;99.90;;;;;;5031253;28;20069;-77
2021/03/11 03:44:47;;;;;;;24.88;17.33;;;6.70;99.90;;;;;;5022841;28;20077;-77
2021/03/11 03:47:15;;;;;;;31.33;19.13;;;6.80;99.90;;;;;;5019800;28;20457;-77
2021/03/11 03:49:41;;;;;;;25.65;18.52;;;6.80;99.90;;;;;;5019612;28;20455;-77
2021/03/11 03:52:08;;;;;;;25.38;17.52;;;6.80;99.90;;;;;;5023706;28;20115;-77
2021/03/11 03:54:42;;;;;;;30.40;20.50;;;6.80;99.90;;;;;;5019209;28;20041;-77
2021/03/11 03:57:16;;;;;;;24.05;16.77;;;6.80;99.90;;;;;;5020922;28;20037;-78
2021/03/11 03:59:43;;;;;;;25.35;16.70;;;6.90;99.90;;;;;;5021767;28;20041;-78
2021/03/11 04:02:12;;;;;;;28.40;19.00;;;6.90;99.90;;;;;;5020627;28;20120;-77
2021/03/11 04:04:43;;;;;;;28.88;18.95;;;6.90;99.90;;;;;;5022376;28;20504;-77
2021/03/11 04:07:12;;;;;;;26.73;17.60;;;6.90;99.90;;;;;;5025982;28;20377;-77
2021/03/11 04:09:40;;;;;;;27.98;18.95;;;6.90;99.90;;;;;;5017014;28;20080;-77
2021/03/11 04:12:08;;;;;;;24.88;18.08;;;6.90;99.90;;;;;;5018197;28;20393;-77
2021/03/11 04:14:36;;;;;;;25.80;16.95;;;6.90;99.90;;;;;;5016184;28;20125;-78
2021/03/11 04:17:02;;;;;;;25.35;17.77;;;6.90;99.90;;;;;;5025273;28;20073;-78
2021/03/11 04:19:30;;;;;;;25.55;16.23;;;7.00;99.90;;;;;;5019011;28;20112;-78
2021/03/11 04:21:56;;;;;;;25.92;16.92;;;7.00;99.90;;;;;;5021250;28;20036;-78
2021/03/11 04:24:22;;;;;;;25.45;16.67;;;7.00;99.90;;;;;;5014598;28;20537;-78
2021/03/11 04:26:49;;;;;;;21.73;14.43;;;7.00;99.90;;;;;;5023403;28;20454;-78
2021/03/11 04:29:15;;;;;;;24.50;16.10;;;7.00;99.90;;;;;;5012440;28;20088;-78
2021/03/11 04:31:42;;;;;;;28.05;17.85;;;7.10;99.90;;;;;;5009614;28;20517;-78
2021/03/11 04:34:08;;;;;;;25.15;16.88;;;7.10;99.90;;;;;;5026181;28;20041;-78
2021/03/11 04:36:34;;;;;;;28.60;17.58;;;7.10;99.90;;;;;;5013656;28;20045;-78
2021/03/11 04:39:00;;;;;;;23.92;16.58;;;7.10;99.90;;;;;;5014137;28;20038;-77
2021/03/11 04:41:27;;;;;;;21.23;15.02;;;7.10;99.90;;;;;;5023555;28;20124;-77
2021/03/11 04:43:59;;;;;;;16.50;13.27;;;7.10;99.90;;;;;;5028736;28;20034;-77
2021/03/11 04:46:26;;;;;;;20.77;15.50;;;7.20;99.90;;;;;;5014966;28;20103;-77
2021/03/11 04:48:53;;;;;;;19.13;13.65;;;7.20;99.90;;;;;;5015703;28;20053;-77
2021/03/11 04:51:20;;;;;;;15.27;9.75;;;7.30;99.90;;;;;;5024553;28;20072;-78
2021/03/11 04:53:46;;;;;;;18.65;13.82;;;7.30;99.90;;;;;;5014070;28;20050;-77
2021/03/11 04:56:15;;;;;;;17.02;12.82;;;7.40;99.90;;;;;;5009298;28;20503;-77
2021/03/11 04:58:41;;;;;;;16.65;12.18;;;7.40;99.90;;;;;;5025932;28;20383;-77
2021/03/11 05:01:12;;;;;;;18.98;13.90;;;7.40;99.90;;;;;;5023348;28;20030;-76
2021/03/11 05:03:43;;;;;;;18.20;12.90;;;7.40;99.90;;;;;;5019099;28;20038;-77
2021/03/11 05:06:09;;;;;;;19.90;13.52;;;7.40;99.90;;;;;;5010750;28;20472;-77
2021/03/11 05:08:34;;;;;;;22.20;15.30;;;7.40;99.90;;;;;;5034948;28;20513;-77
2021/03/11 05:11:00;;;;;;;18.60;13.88;;;7.40;99.90;;;;;;5012383;28;20073;-77
2021/03/11 05:13:30;;;;;;;17.35;13.02;;;7.40;99.90;;;;;;5023760;28;20037;-77
2021/03/11 05:15:57;;;;;;;13.10;9.98;;;7.50;99.90;;;;;;5022568;28;20045;-77
2021/03/11 05:18:23;;;;;;;19.08;13.68;;;7.50;99.90;;;;;;5011388;28;20038;-78
2021/03/11 05:20:48;;;;;;;16.67;13.07;;;7.50;99.90;;;;;;5023090;28;20030;-78
2021/03/11 05:23:14;;;;;;;19.25;13.43;;;7.60;99.90;;;;;;5024566;28;20677;-78
2021/03/11 05:25:40;;;;;;;21.83;14.25;;;7.60;99.90;;;;;;5019652;28;20077;-77
2021/03/11 05:28:06;;;;;;;17.55;13.55;;;7.60;99.90;;;;;;5036414;28;20122;-77
2021/03/11 05:30:32;;;;;;;17.40;13.65;;;7.60;99.90;;;;;;5030718;28;20442;-77
2021/03/11 05:32:58;;;;;;;18.40;13.02;;;7.60;99.90;;;;;;5025490;28;20088;-77
2021/03/11 05:35:24;;;;;;;19.23;15.10;;;7.60;99.90;;;;;;5021170;28;20045;-76
2021/03/11 05:37:49;;;;;;;19.20;14.38;;;7.70;99.90;;;;;;5020230;28;20801;-77
2021/03/11 05:40:16;;;;;;;22.17;15.05;;;7.70;99.90;;;;;;5028347;28;20465;-77
2021/03/11 05:42:47;;;;;;;20.95;16.55;;;7.70;99.90;;;;;;5032265;28;20262;-78
2021/03/11 05:45:13;;;;;;;22.10;14.68;;;7.80;99.90;;;;;;5015492;28;20056;-78
2021/03/11 05:47:43;;;;;;;18.30;15.40;;;7.80;99.90;;;;;;5021286;28;20092;-77
2021/03/11 05:50:09;;;;;;;20.83;14.88;;;7.80;99.90;;;;;;5013816;28;20033;-77
2021/03/11 05:52:36;;;;;;;23.40;16.65;;;7.90;99.90;;;;;;5024552;28;20033;-78
2021/03/11 05:55:04;;;;;;;20.70;15.10;;;7.90;99.90;;;;;;5028571;28;20534;-78
2021/03/11 05:57:30;;;;;;;24.67;18.52;;;7.90;99.90;;;;;;5039291;28;20049;-78
2021/03/11 05:59:56;;;;;;;21.95;16.00;;;7.90;99.90;;;;;;5022820;28;20462;-77
2021/03/11 06:02:25;;;;;;;24.10;15.73;;;7.90;99.90;;;;;;5042215;28;20117;-78
2021/03/11 06:04:55;;;;;;;22.80;16.33;;;7.90;99.90;;;;;;5021764;28;20047;-78
2021/03/11 06:07:23;;;;;;;23.48;17.10;;;7.90;99.90;;;;;;5030004;28;20575;-77
2021/03/11 06:09:54;;;;;;;24.00;17.50;;;8.00;99.90;;;;;;5024838;28;20043;-78
2021/03/11 06:12:21;;;;;;;27.40;17.65;;;8.00;99.90;;;;;;5021906;28;20057;-78
2021/03/11 06:14:54;;;;;;;23.55;16.60;;;8.00;99.90;;;;;;5022552;28;20071;-78
2021/03/11 06:17:22;;;;;;;23.63;14.50;;;8.00;99.90;;;;;;5022634;28;20042;-78
2021/03/11 06:19:48;;;;;;;22.02;15.23;;;8.00;99.90;;;;;;5017891;28;20092;-77
2021/03/11 06:22:15;;;;;;;25.58;15.07;;;8.00;99.90;;;;;;5020260;28;20079;-77
2021/03/11 06:24:44;;;;;;;24.80;16.10;;;8.00;99.90;;;;;;5015860;28;20061;-77
2021/03/11 06:27:09;;;;;;;25.63;18.25;;;8.00;99.90;;;;;;5018499;28;20053;-77
2021/03/11 06:29:37;;;;;;;28.60;19.42;;;8.10;99.90;;;;;;5018591;28;20092;-78
2021/03/11 06:32:04;;;;;;;20.45;15.27;;;8.10;99.90;;;;;;5028311;28;20096;-77
2021/03/11 06:34:35;;;;;;;28.20;18.23;;;8.10;99.90;;;;;;5026517;28;20354;-77
2021/03/11 06:37:01;;;;;;;25.92;17.00;;;8.10;99.90;;;;;;5012953;28;20358;-77
2021/03/11 06:39:29;;;;;;;29.98;19.52;;;8.20;99.90;;;;;;5014108;28;20034;-77
2021/03/11 06:41:55;;;;;;;24.45;17.02;;;8.20;99.90;;;;;;5017890;28;20474;-78
2021/03/11 06:44:38;;;;;;;22.67;16.92;;;8.20;99.90;;;;;;5029537;28;20133;-78
2021/03/11 06:47:08;;;;;;;20.00;14.00;;;8.20;99.90;;;;;;5016901;28;20053;-77
2021/03/11 06:49:34;;;;;;;20.60;14.00;;;8.30;99.90;;;;;;5014695;28;20036;-77
2021/03/11 06:52:14;;;;;;;19.15;12.70;;;8.30;99.90;;;;;;5014725;28;20498;-77
2021/03/11 06:54:50;;;;;;;19.42;13.63;;;8.40;99.90;;;;;;5019592;28;20034;-78
2021/03/11 06:57:30;;;;;;;16.45;11.98;;;8.50;99.90;;;;;;5021545;28;20409;-78
2021/03/11 06:59:58;;;;;;;18.45;13.77;;;8.60;99.90;;;;;;5025853;28;20128;-76
2021/03/11 07:02:25;;;;;;;19.10;12.85;;;8.60;99.90;;;;;;5024190;28;20400;-78
2021/03/11 07:04:52;;;;;;;19.58;13.95;;;8.60;99.90;;;;;;5025733;28;20072;-78
2021/03/11 07:07:23;;;;;;;17.40;13.20;;;8.70;99.90;;;;;;5015886;28;20040;-80
2021/03/11 07:09:53;;;;;;;16.35;13.30;;;8.90;99.90;;;;;;5031074;28;20072;-78
2021/03/11 07:12:19;;;;;;;21.88;12.50;;;9.00;99.90;;;;;;5024105;28;20055;-79
2021/03/11 07:14:48;;;;;;;14.15;9.73;;;9.10;99.90;;;;;;5043585;28;20382;-79
2021/03/11 07:17:20;;;;;;;17.10;12.25;;;9.10;99.90;;;;;;5022922;28;20473;-79
2021/03/11 07:20:26;;;;;;;15.20;11.68;;;9.10;99.90;;;;;;5041362;28;20054;-79
2021/03/11 07:23:22;;;;;;;13.85;10.55;;;9.20;99.80;;;;;;4999914;28;20053;-79
2021/03/11 07:25:49;;;;;;;17.90;11.70;;;9.30;99.90;;;;;;5012055;28;20049;-78
2021/03/11 07:28:26;;;;;;;17.63;12.68;;;9.40;99.70;;;;;;5025957;28;20136;-79
2021/03/11 07:30:57;;;;;;;22.60;12.05;;;9.60;99.90;;;;;;5022570;28;20049;-78
2021/03/11 07:33:26;;;;;;;11.82;8.35;;;9.60;99.70;;;;;;5011914;28;20045;-78
2021/03/11 07:36:03;;;;;;;17.98;10.95;;;9.70;99.10;;;;;;5039390;28;20055;-78
2021/03/11 07:38:32;;;;;;;14.57;8.90;;;9.60;98.80;;;;;;5020781;28;20041;-78
2021/03/11 07:41:00;;;;;;;14.98;9.57;;;9.50;98.60;;;;;;5036767;28;20060;-78
2021/03/11 07:43:28;;;;;;;16.45;10.70;;;9.60;98.50;;;;;;5016283;28;20207;-78
2021/03/11 07:46:05;;;;;;;15.13;10.27;;;9.60;98.50;;;;;;5027851;28;20129;-78
2021/03/11 07:48:32;;;;;;;16.45;9.85;;;9.50;98.50;;;;;;5025358;28;20123;-79
2021/03/11 07:50:59;;;;;;;12.43;8.63;;;9.50;98.50;;;;;;5016455;28;20101;-79
2021/03/11 07:53:26;;;;;;;14.10;8.70;;;9.40;98.20;;;;;;5018302;28;20025;-78
2021/03/11 07:55:54;;;;;;;10.23;8.23;;;9.40;97.70;;;;;;5031994;28;20072;-79
2021/03/11 07:58:23;;;;;;;13.93;8.38;;;9.40;97.90;;;;;;5022645;28;20402;-80
2021/03/11 08:00:49;;;;;;;12.82;7.22;;;9.40;97.50;;;;;;5033327;28;20053;-80
2021/03/11 08:03:25;;;;;;;14.18;7.57;;;9.50;97.40;;;;;;5027684;28;20104;-80
2021/03/11 08:05:51;;;;;;;13.13;7.65;;;9.40;97.40;;;;;;5023524;28;20045;-80
2021/03/11 08:08:29;;;;;;;14.60;5.60;;;9.50;97.30;;;;;;5026774;28;20060;-77
2021/03/11 08:10:57;;;;;;;14.93;6.70;;;9.50;96.70;;;;;;5022867;28;20054;-77
2021/03/11 08:13:23;;;;;;;15.98;7.70;;;9.60;96.80;;;;;;5024575;28;20067;-77
2021/03/11 08:15:50;;;;;;;14.63;6.85;;;9.60;96.90;;;;;;5024823;28;20045;-82
2021/03/11 08:18:34;;;;;;;14.95;5.40;;;9.60;96.30;;;;;;5026176;28;20133;-82
2021/03/11 08:21:00;;;;;;;16.33;5.75;;;9.70;95.40;;;;;;5022001;28;20489;-77
2021/03/11 08:23:30;;;;;;;16.48;4.45;;;9.60;95.90;;;;;;5025084;28;20040;-76
2021/03/11 08:25:56;;;;;;;16.08;4.72;;;9.70;95.10;;;;;;5019091;28;20049;-76
2021/03/11 08:28:22;;;;;;;23.00;4.85;;;9.70;95.10;;;;;;5018625;28;20176;-75
2021/03/11 08:30:55;;;;;;;23.50;5.40;;;9.70;93.50;;;;;;5018940;28;20088;-79
2021/03/11 08:33:21;;;;;;;23.92;4.95;;;9.80;94.20;;;;;;5019551;28;20113;-78
2021/03/11 08:35:52;;;;;;;28.60;5.68;;;9.90;94.70;;;;;;5016146;28;20077;-77
2021/03/11 08:38:20;;;;;;;21.20;5.18;;;10.00;94.30;;;;;;5028219;28;20041;-81
2021/03/11 08:41:03;;;;;;;27.83;5.47;;;10.20;93.00;;;;;;5024404;28;20580;-79
2021/03/11 08:43:36;;;;;;;23.48;5.13;;;10.20;92.20;;;;;;5021918;28;20073;-77
2021/03/11 08:46:15;;;;;;;23.30;5.20;;;10.10;92.60;;;;;;5024729;28;20057;-77
2021/03/11 08:48:50;;;;;;;29.35;6.13;;;10.10;92.30;;;;;;5033381;28;20489;-77
2021/03/11 08:51:19;;;;;;;27.83;5.18;;;10.10;91.30;;;;;;5016398;28;20053;-77
2021/03/11 08:54:01;;;;;;;31.25;5.68;;;10.00;92.30;;;;;;5022156;28;20343;-77
2021/03/11 08:56:27;;;;;;;25.63;4.63;;;10.10;91.90;;;;;;5017473;28;20064;-76
2021/03/11 08:59:02;;;;;;;25.10;5.78;;;10.00;92.00;;;;;;5013119;28;20541;-77
2021/03/11 09:01:31;;;;;;;22.42;4.80;;;10.10;91.20;;;;;;5017248;28;20039;-77
2021/03/11 09:03:58;;;;;;;24.48;4.10;;;10.00;91.70;;;;;;5020367;28;20053;-76
2021/03/11 09:06:49;;;;;;;33.72;6.22;;;10.00;92.20;;;;;;5024956;28;20126;-76
2021/03/11 09:09:16;;;;;;;22.35;4.75;;;10.00;91.80;;;;;;5040148;28;20111;-77
2021/03/11 09:11:55;;;;;;;27.77;6.03;;;9.90;92.40;;;;;;5012874;28;20478;-78
2021/03/11 09:14:22;;;;;;;24.38;5.40;;;10.00;92.10;;;;;;5018261;28;20057;-77
2021/03/11 09:16:48;;;;;;;25.77;5.45;;;10.10;92.10;;;;;;5030901;28;20520;-77
2021/03/11 09:19:16;;;;;;;27.65;5.35;;;10.20;92.20;;;;;;5025489;28;20485;-77
2021/03/11 09:21:46;;;;;;;25.63;4.93;;;10.20;91.60;;;;;;5014425;28;20567;-77
2021/03/11 09:24:19;;;;;;;27.70;5.35;;;10.30;91.80;;;;;;5017556;28;20045;-77
2021/03/11 09:26:45;;;;;;;26.13;5.15;;;10.30;90.60;;;;;;5009343;28;20057;-78
2021/03/11 09:29:12;;;;;;;22.88;4.80;;;10.30;91.60;;;;;;5025393;28;20037;-77
2021/03/11 09:31:39;;;;;;;29.58;5.82;;;10.30;91.20;;;;;;5024563;28;20072;-78
2021/03/11 09:34:05;;;;;;;20.23;3.95;;;10.20;90.50;;;;;;5026732;28;20053;-78
2021/03/11 09:36:32;;;;;;;30.58;5.88;;;10.20;90.00;;;;;;5030659;28;20433;-79
2021/03/11 09:39:07;;;;;;;20.95;4.05;;;10.20;90.50;;;;;;5015439;28;20045;-78
2021/03/11 09:41:35;;;;;;;32.88;6.53;;;10.30;87.90;;;;;;5019953;28;20050;-78
2021/03/11 09:44:08;;;;;;;31.65;5.55;;;10.30;90.40;;;;;;5042113;28;20041;-79
2021/03/11 09:46:35;;;;;;;34.25;5.75;;;10.40;88.10;;;;;;5022964;28;20041;-78
2021/03/11 09:49:02;;;;;;;26.48;5.85;;;10.40;90.00;;;;;;5016288;28;20037;-78
2021/03/11 09:51:32;;;;;;;22.42;3.97;;;10.40;88.40;;;;;;5026476;28;20050;-78
2021/03/11 09:54:03;;;;;;;27.60;5.43;;;10.50;85.10;;;;;;5018231;28;20061;-78
2021/03/11 09:56:37;;;;;;;24.88;5.55;;;10.50;86.90;;;;;;5020032;28;20057;-78
2021/03/11 09:59:05;;;;;;;26.25;5.65;;;10.50;87.70;;;;;;5013504;28;20386;-78
2021/03/11 10:01:36;;;;;;;29.70;6.18;;;10.60;86.70;;;;;;5017995;28;20030;-78
2021/03/11 10:04:14;;;;;;;26.90;6.10;;;10.70;84.00;;;;;;5022219;28;20033;-78
2021/03/11 10:06:50;;;;;;;27.05;5.93;;;10.70;82.70;;;;;;5040529;28;20132;-78
2021/03/11 10:09:16;;;;;;;26.92;5.53;;;10.80;81.80;;;;;;5026665;28;20056;-78
2021/03/11 10:11:45;;;;;;;24.55;5.32;;;10.70;85.00;;;;;;5026074;28;20054;-78
2021/03/11 10:14:21;;;;;;;30.35;6.18;;;10.80;83.40;;;;;;5021007;28;20176;-80
2021/03/11 10:16:48;;;;;;;34.78;6.82;;;10.80;84.60;;;;;;5026366;28;20041;-79
2021/03/11 10:19:22;;;;;;;32.22;5.80;;;10.80;85.40;;;;;;5031772;28;20040;-79
2021/03/11 10:21:55;;;;;;;28.80;5.03;;;10.80;85.80;;;;;;5021860;28;20141;-79
2021/03/11 10:24:41;;;;;;;30.40;7.18;;;10.70;83.80;;;;;;5019054;28;20453;-79
2021/03/11 10:27:25;;;;;;;31.67;5.25;;;10.70;85.50;;;;;;5031035;28;20092;-78
2021/03/11 10:30:11;;;;;;;29.65;6.00;;;10.60;83.90;;;;;;5015819;28;20049;-79
2021/03/11 10:32:39;;;;;;;30.58;5.53;;;10.50;86.90;;;;;;5026742;28;20081;-79
2021/03/11 10:35:08;;;;;;;36.42;7.55;;;10.30;90.40;;;;;;5029298;28;20041;-79
2021/03/11 10:37:37;;;;;;;32.15;6.80;;;10.10;90.70;;;;;;5044510;28;20056;-79
2021/03/11 10:40:13;;;;;;;34.00;7.30;;;9.90;91.00;;;;;;5023067;28;20061;-79
2021/03/11 10:42:44;;;;;;;34.17;6.90;;;9.70;91.60;;;;;;5035344;28;20142;-79
2021/03/11 10:45:12;;;;;;;41.92;6.97;;;9.50;92.70;;;;;;5022334;28;20466;-79
2021/03/11 10:47:39;;;;;;;33.45;6.70;;;9.30;93.20;;;;;;5018361;28;20400;-78
2021/03/11 10:50:24;;;;;;;36.58;6.60;;;9.10;93.60;;;;;;5019749;28;20038;-77
2021/03/11 10:52:53;;;;;;;43.17;7.47;;;9.00;94.40;;;;;;5019334;28;20504;-79
2021/03/11 10:55:33;;;;;;;40.33;6.53;;;8.90;95.00;;;;;;5015600;28;20121;-78
2021/03/11 10:57:59;;;;;;;38.38;6.03;;;8.80;95.10;;;;;;5026359;28;20457;-78
2021/03/11 11:00:31;;;;;;;38.30;7.53;;;8.80;95.40;;;;;;5027106;28;20041;-78
2021/03/11 11:02:59;;;;;;;32.90;6.53;;;8.70;95.60;;;;;;5018233;28;20518;-78
2021/03/11 11:05:26;;;;;;;31.98;5.40;;;8.70;95.80;;;;;;5017285;28;20044;-78
2021/03/11 11:07:51;;;;;;;32.75;5.55;;;8.70;96.00;;;;;;5029448;28;20048;-79
2021/03/11 11:10:23;;;;;;;35.58;6.30;;;8.60;96.00;;;;;;5018779;28;20385;-79
2021/03/11 11:12:49;;;;;;;39.65;6.88;;;8.60;96.40;;;;;;5029905;28;20133;-79
2021/03/11 11:15:17;;;;;;;34.58;6.40;;;8.60;96.50;;;;;;5030392;28;20057;-79
2021/03/11 11:17:46;;;;;;;45.55;7.82;;;8.50;96.70;;;;;;5016615;28;20053;-79
2021/03/11 11:23:15;;;;;;;44.30;6.90;;;8.50;97.00;;;;;;5021167;28;20122;-80
2021/03/11 11:25:43;;;;;;;35.60;5.75;;;8.40;97.40;;;;;;5023079;28;20077;-79
2021/03/11 11:28:08;;;;;;;33.72;5.32;;;8.30;97.60;;;;;;5027441;28;20039;-79
2021/03/11 11:33:43;;;;;;;34.72;5.93;;;8.30;97.80;;;;;;5026836;28;20045;-80
2021/03/11 11:36:09;;;;;;;46.85;7.18;;;8.30;98.10;;;;;;5028485;28;20040;-79
2021/03/11 11:38:35;;;;;;;47.55;7.53;;;8.20;98.30;;;;;;5024988;28;20044;-78
2021/03/11 11:41:00;;;;;;;33.63;4.90;;;8.20;98.50;;;;;;5045309;28;20046;-81
2021/03/11 11:43:26;;;;;;;37.45;6.60;;;8.20;98.40;;;;;;5021014;28;20069;-77
2021/03/11 11:45:52;;;;;;;37.72;6.68;;;8.20;98.50;;;;;;5018638;28;20038;-78
2021/03/11 11:48:18;;;;;;;44.78;7.32;;;8.10;98.60;;;;;;5027176;28;20120;-79
2021/03/11 11:50:44;;;;;;;33.90;5.95;;;8.10;98.40;;;;;;5015713;28;20065;-78
2021/03/11 11:53:10;;;;;;;29.20;4.70;;;8.10;98.40;;;;;;5027739;28;20099;-77
2021/03/11 11:55:36;;;;;;;28.00;5.05;;;8.10;98.30;;;;;;5029563;28;20115;-78
2021/03/11 11:58:02;;;;;;;30.73;5.28;;;8.00;98.30;;;;;;5015776;28;20057;-79
2021/03/11 12:00:28;;;;;;;30.05;5.15;;;8.00;98.20;;;;;;5019148;28;20053;-79
2021/03/11 12:02:53;;;;;;;27.90;5.22;;;7.90;98.30;;;;;;5024145;28;20117;-78
2021/03/11 12:05:19;;;;;;;21.58;4.03;;;7.90;98.50;;;;;;5025872;28;20045;-78
2021/03/11 12:07:45;;;;;;;35.55;5.95;;;7.90;98.50;;;;;;5027500;28;20053;-78
2021/03/11 12:10:12;;;;;;;31.65;5.28;;;8.00;98.60;;;;;;5021453;28;20049;-78
2021/03/11 12:12:40;;;;;;;35.75;6.30;;;7.90;98.40;;;;;;5012798;28;20049;-79
2021/03/11 12:15:07;;;;;;;32.65;5.97;;;8.00;98.70;;;;;;5018902;28;20041;-78
2021/03/11 12:17:33;;;;;;;39.55;7.35;;;7.90;98.60;;;;;;5024001;28;20058;-80
2021/03/11 12:19:59;;;;;;;41.30;6.05;;;7.90;98.80;;;;;;5025356;28;20053;-79
2021/03/11 12:22:27;;;;;;;25.20;3.83;;;8.00;98.90;;;;;;5018211;28;20042;-79
2021/03/11 12:24:53;;;;;;;40.22;7.10;;;8.00;98.60;;;;;;5016984;28;20053;-78
2021/03/11 12:27:19;;;;;;;32.05;5.88;;;7.90;98.60;;;;;;5019407;28;20405;-79
2021/03/11 12:29:45;;;;;;;41.25;7.57;;;8.00;98.70;;;;;;5038434;28;20175;-79
2021/03/11 12:32:10;;;;;;;41.38;7.15;;;8.00;98.50;;;;;;5028225;28;20484;-79
2021/03/11 12:34:36;;;;;;;39.22;6.53;;;8.10;98.60;;;;;;5023356;28;20065;-79
2021/03/11 12:37:02;;;;;;;40.55;7.53;;;8.20;98.50;;;;;;5024201;28;20049;-81
2021/03/11 12:39:28;;;;;;;35.50;6.05;;;8.10;98.30;;;;;;5027206;28;20038;-81
2021/03/11 12:41:53;;;;;;;36.28;6.07;;;8.20;98.10;;;;;;5036006;28;20038;-80
2021/03/11 12:44:19;;;;;;;34.85;6.85;;;8.30;98.20;;;;;;5033514;28;20466;-80
2021/03/11 12:46:45;;;;;;;47.05;7.25;;;8.30;98.20;;;;;;5032102;28;20401;-81
2021/03/11 12:49:11;;;;;;;31.25;6.15;;;8.40;98.00;;;;;;5021353;28;20073;-80
2021/03/11 12:51:37;;;;;;;43.15;6.43;;;8.40;97.90;;;;;;5021781;28;20056;-80
2021/03/11 12:54:04;;;;;;;32.35;5.65;;;8.50;97.60;;;;;;5027086;28;20052;-81
2021/03/11 12:56:30;;;;;;;37.00;6.35;;;8.60;97.10;;;;;;5025163;28;20061;-81